Time;durP1;ratioP1;P1;durP2;ratioP2;P2;SDS_P1;SDS_P2;PMS_P1;PMS_P2;Temp;Humidity;BMP_temperature;BMP_pressure;BME280_temperature;BME280_humidity;BME280_pressure;Samples;Min_cycle;Max_cycle;Signal;HPM_P1;HPM_P2
2022/09/19 00:00:53;;;;;;;13.32;6.75;;;8.20;99.90;;;;;;5015909;28;20427;-58
2022/09/19 00:03:19;;;;;;;14.38;7.13;;;8.10;99.90;;;;;;5016430;28;20029;-58
2022/09/19 00:05:45;;;;;;;13.75;7.00;;;8.00;99.90;;;;;;5015988;28;20034;-58
2022/09/19 00:08:11;;;;;;;16.58;8.00;;;8.00;99.90;;;;;;5031321;28;20038;-58
2022/09/19 00:10:41;;;;;;;11.93;6.85;;;7.90;99.90;;;;;;5016072;28;20112;-58
2022/09/19 00:13:08;;;;;;;12.98;6.45;;;7.80;99.90;;;;;;5015853;28;20468;-58
2022/09/19 00:15:36;;;;;;;10.50;6.43;;;7.80;99.90;;;;;;5015901;28;20029;-58
2022/09/19 00:18:03;;;;;;;11.73;6.13;;;7.80;99.90;;;;;;5016205;28;20030;-58
2022/09/19 00:20:30;;;;;;;16.65;7.43;;;7.90;99.90;;;;;;5015687;28;20049;-58
2022/09/19 00:25:41;;;;;;;15.65;6.20;;;7.90;99.90;;;;;;5015710;28;20034;-58
2022/09/19 00:28:06;;;;;;;13.45;6.20;;;7.90;99.90;;;;;;5015647;28;20041;-58
2022/09/19 00:30:37;;;;;;;11.50;6.25;;;7.90;99.90;;;;;;5015726;28;20037;-58
2022/09/19 00:33:03;;;;;;;;;;;7.80;99.90;;;;;;5016030;28;20036;-58
2022/09/19 00:35:32;;;;;;;11.95;6.13;;;7.80;99.90;;;;;;5015485;28;20007;-58
2022/09/19 00:37:58;;;;;;;10.65;5.65;;;7.90;99.90;;;;;;5015451;28;20030;-58
2022/09/19 00:40:24;;;;;;;13.13;5.95;;;7.80;99.90;;;;;;5014190;28;20392;-58
2022/09/19 00:42:50;;;;;;;11.95;5.88;;;7.70;99.90;;;;;;5030088;28;20022;-58
2022/09/19 00:45:17;;;;;;;12.00;6.53;;;7.70;99.90;;;;;;5015477;28;20036;-58
2022/09/19 00:47:48;;;;;;;13.95;6.47;;;7.60;99.90;;;;;;5015316;28;20037;-58
2022/09/19 00:50:24;;;;;;;13.50;5.45;;;7.60;99.90;;;;;;5015275;28;20036;-58
2022/09/19 00:52:58;;;;;;;12.00;6.00;;;7.60;99.90;;;;;;5015280;28;20439;-58
2022/09/19 00:55:24;;;;;;;10.77;6.18;;;7.70;99.90;;;;;;5015438;28;20057;-58
2022/09/19 00:58:21;;;;;;;10.95;5.07;;;7.60;99.90;;;;;;5015402;28;20036;-58
2022/09/19 01:00:47;;;;;;;11.90;6.75;;;7.70;99.90;;;;;;5015117;28;20026;-58
2022/09/19 01:03:13;;;;;;;14.27;6.25;;;7.60;99.90;;;;;;5015171;28;20034;-58
2022/09/19 01:05:59;;;;;;;11.13;5.53;;;7.60;99.90;;;;;;5015232;28;20030;-58
2022/09/19 01:08:33;;;;;;;11.93;5.55;;;7.60;99.90;;;;;;5015059;28;20026;-58
2022/09/19 01:11:28;;;;;;;13.38;5.70;;;7.60;99.90;;;;;;5015032;28;20485;-58
2022/09/19 01:14:39;;;;;;;12.57;4.72;;;7.50;99.90;;;;;;5015088;28;20052;-58
2022/09/19 01:17:48;;;;;;;8.98;4.90;;;7.50;99.90;;;;;;4962447;28;20045;-58
2022/09/19 01:20:35;;;;;;;11.90;5.43;;;7.50;99.90;;;;;;5009638;28;20061;-58
2022/09/19 01:23:22;;;;;;;9.85;5.35;;;7.40;99.90;;;;;;5014731;28;20476;-58
2022/09/19 01:25:48;;;;;;;11.50;5.22;;;7.40;99.90;;;;;;5014751;28;20037;-58
2022/09/19 01:28:20;;;;;;;11.82;5.05;;;7.50;99.90;;;;;;5014825;28;20037;-57
2022/09/19 01:31:17;;;;;;;12.35;5.30;;;7.40;99.90;;;;;;5013344;28;20270;-58
2022/09/19 01:34:10;;;;;;;15.60;6.32;;;7.30;99.90;;;;;;5013395;28;20022;-58
2022/09/19 01:36:42;;;;;;;11.95;6.70;;;7.50;99.90;;;;;;5003999;28;20050;-58
2022/09/19 01:39:11;;;;;;;10.45;5.97;;;7.40;99.90;;;;;;5013373;28;20034;-58
2022/09/19 01:41:53;;;;;;;16.17;6.38;;;7.50;99.90;;;;;;5029858;28;20125;-58
2022/09/19 01:44:22;;;;;;;12.43;5.97;;;7.40;99.90;;;;;;5013374;28;20037;-58
2022/09/19 01:47:21;;;;;;;15.02;6.15;;;7.30;99.90;;;;;;5029836;28;20062;-58
2022/09/19 01:50:01;;;;;;;10.32;5.82;;;7.20;99.90;;;;;;5014563;28;20046;-58
2022/09/19 01:52:53;;;;;;;9.65;5.35;;;7.20;99.90;;;;;;5012927;28;20084;-58
2022/09/19 01:55:33;;;;;;;11.23;5.55;;;7.20;99.90;;;;;;5032982;28;20494;-58
2022/09/19 01:58:21;;;;;;;10.90;5.90;;;7.20;99.90;;;;;;5033817;28;20137;-58
2022/09/19 02:00:55;;;;;;;11.40;5.20;;;7.00;99.90;;;;;;5033673;28;20033;-58
2022/09/19 02:03:55;;;;;;;13.55;5.30;;;7.10;99.90;;;;;;5018650;28;20025;-58
2022/09/19 02:06:48;;;;;;;11.90;4.22;;;7.00;99.90;;;;;;5033519;28;20030;-57
2022/09/19 02:09:36;;;;;;;9.98;3.97;;;7.00;99.90;;;;;;5033589;28;20040;-58
2022/09/19 02:12:05;;;;;;;8.82;3.97;;;7.00;99.90;;;;;;5017269;28;20041;-58
2022/09/19 02:14:38;;;;;;;8.57;3.47;;;7.00;99.90;;;;;;5033399;28;20044;-58
2022/09/19 02:17:07;;;;;;;7.80;3.95;;;7.20;99.90;;;;;;5033565;28;20025;-58
2022/09/19 02:19:40;;;;;;;8.13;4.15;;;7.10;99.90;;;;;;5017005;28;20068;-58
2022/09/19 02:22:12;;;;;;;11.35;4.15;;;7.00;99.90;;;;;;5016585;28;20029;-58
2022/09/19 02:24:40;;;;;;;11.73;3.63;;;7.00;99.90;;;;;;5018357;28;20029;-58
2022/09/19 02:27:17;;;;;;;7.47;3.55;;;7.00;99.90;;;;;;5033301;28;20044;-58
2022/09/19 02:29:48;;;;;;;8.93;3.63;;;6.90;99.90;;;;;;5032961;28;20387;-58
2022/09/19 02:32:19;;;;;;;8.57;3.63;;;6.90;99.90;;;;;;5016709;28;20144;-58
2022/09/19 02:34:49;;;;;;;7.18;3.63;;;6.90;99.90;;;;;;5016463;28;20037;-58
2022/09/19 02:37:35;;;;;;;10.57;5.43;;;6.90;99.90;;;;;;5033124;28;20129;-58
2022/09/19 02:40:08;;;;;;;9.63;4.13;;;6.80;99.90;;;;;;5016648;28;20034;-58
2022/09/19 02:42:47;;;;;;;7.85;3.72;;;6.90;99.90;;;;;;5032754;28;20030;-58
2022/09/19 02:45:33;;;;;;;8.48;3.78;;;7.00;99.90;;;;;;5032911;28;20034;-58
2022/09/19 02:48:19;;;;;;;11.95;3.88;;;7.00;99.90;;;;;;5032887;28;20057;-58
2022/09/19 02:50:50;;;;;;;5.30;2.90;;;7.00;99.90;;;;;;5032464;28;20092;-58
2022/09/19 02:53:22;;;;;;;7.18;2.97;;;7.00;99.90;;;;;;5032833;28;20330;-57
2022/09/19 02:55:49;;;;;;;;;;;6.90;99.90;;;;;;5033154;28;20030;-58
2022/09/19 02:58:17;;;;;;;4.45;3.17;;;6.80;99.90;;;;;;5016034;28;19912;-57
2022/09/19 03:00:52;;;;;;;7.07;3.28;;;6.90;99.90;;;;;;5017386;28;20487;-58
2022/09/19 03:06:18;;;;;;;18.55;7.38;;;7.00;99.90;;;;;;5032016;28;20037;-57
2022/09/19 03:08:46;;;;;;;7.45;4.35;;;7.10;99.90;;;;;;5032482;28;20423;-58
2022/09/19 03:11:18;;;;;;;11.63;5.82;;;7.10;99.90;;;;;;5015925;28;20034;-58
2022/09/19 03:13:45;;;;;;;20.55;10.85;;;7.00;99.90;;;;;;5032243;28;20406;-58
2022/09/19 03:16:17;;;;;;;17.38;7.00;;;7.00;99.90;;;;;;5015799;28;20061;-57
2022/09/19 03:18:46;;;;;;;10.15;3.72;;;7.10;99.90;;;;;;5016926;28;20076;-57
2022/09/19 03:21:13;;;;;;;6.40;3.05;;;7.00;99.90;;;;;;5015462;28;20036;-58
2022/09/19 03:23:45;;;;;;;7.88;3.78;;;7.00;99.90;;;;;;5015711;28;20323;-58
2022/09/19 03:26:28;;;;;;;8.85;4.43;;;7.00;99.90;;;;;;5015482;28;20403;-57
2022/09/19 03:28:55;;;;;;;11.40;6.68;;;7.10;99.90;;;;;;5015596;28;20026;-57
2022/09/19 03:31:23;;;;;;;17.65;10.70;;;7.20;99.90;;;;;;5032047;28;20044;-58
2022/09/19 03:33:51;;;;;;;20.70;9.00;;;7.30;99.90;;;;;;5016703;28;20022;-58
2022/09/19 03:36:18;;;;;;;14.13;8.65;;;7.40;99.90;;;;;;5015439;28;20447;-58
2022/09/19 03:38:44;;;;;;;11.00;5.90;;;7.40;99.90;;;;;;5016335;28;20025;-58
2022/09/19 03:41:16;;;;;;;12.63;5.53;;;7.30;99.90;;;;;;5015406;28;20550;-57
2022/09/19 03:43:42;;;;;;;9.15;4.43;;;7.30;99.90;;;;;;5015303;28;20034;-58
2022/09/19 03:46:13;;;;;;;15.82;5.57;;;7.30;99.90;;;;;;5031632;28;20034;-58
2022/09/19 03:48:44;;;;;;;7.88;5.28;;;7.30;99.90;;;;;;5032058;28;20030;-58
2022/09/19 03:51:14;;;;;;;10.98;5.60;;;7.40;99.90;;;;;;5014985;28;20045;-57
2022/09/19 03:53:43;;;;;;;9.65;4.88;;;7.50;99.90;;;;;;5031509;28;20377;-57
2022/09/19 03:56:14;;;;;;;7.88;4.07;;;7.50;99.90;;;;;;5031729;28;20472;-58
2022/09/19 03:58:41;;;;;;;9.88;4.30;;;7.50;99.90;;;;;;5015138;28;20085;-58
2022/09/19 04:01:09;;;;;;;13.02;4.38;;;7.40;99.90;;;;;;5031111;28;20423;-58
2022/09/19 04:03:38;;;;;;;14.80;5.60;;;7.40;99.90;;;;;;5031305;28;20071;-57
2022/09/19 04:06:07;;;;;;;7.85;3.50;;;7.30;99.90;;;;;;5014957;28;20475;-57
2022/09/19 04:08:35;;;;;;;9.98;4.30;;;7.30;99.90;;;;;;5031325;28;20034;-57
2022/09/19 04:11:01;;;;;;;8.77;3.83;;;7.20;99.90;;;;;;5031374;28;20071;-58
2022/09/19 04:13:29;;;;;;;10.90;4.07;;;7.20;99.90;;;;;;5015939;28;20062;-57
2022/09/19 04:16:01;;;;;;;7.43;3.75;;;7.40;99.90;;;;;;5031038;28;20030;-58
2022/09/19 04:18:28;;;;;;;8.82;3.78;;;7.30;99.90;;;;;;5030232;28;20085;-58
2022/09/19 04:20:55;;;;;;;13.38;4.30;;;7.30;99.90;;;;;;5030929;28;20105;-57
2022/09/19 04:23:40;;;;;;;7.88;4.10;;;7.20;99.90;;;;;;5015792;28;20507;-57
2022/09/19 04:26:25;;;;;;;9.70;3.97;;;7.10;99.90;;;;;;5016301;28;20067;-57
2022/09/19 04:28:52;;;;;;;14.20;4.63;;;7.20;99.90;;;;;;5030798;28;20050;-58
2022/09/19 04:31:18;;;;;;;10.77;5.00;;;7.10;99.90;;;;;;5030979;28;20026;-58
2022/09/19 04:33:47;;;;;;;9.20;3.80;;;7.10;99.90;;;;;;5030917;28;20034;-58
2022/09/19 04:36:13;;;;;;;9.40;4.43;;;7.00;99.90;;;;;;5030572;28;20037;-57
2022/09/19 04:38:42;;;;;;;16.45;7.32;;;6.90;99.90;;;;;;5030586;28;20092;-58
2022/09/19 04:41:16;;;;;;;12.88;4.60;;;6.90;99.90;;;;;;5014183;28;20037;-57
2022/09/19 04:43:42;;;;;;;11.10;5.00;;;6.90;99.90;;;;;;5030553;28;20029;-58
2022/09/19 04:46:41;;;;;;;16.13;5.63;;;6.90;99.90;;;;;;5003125;28;20038;-57
2022/09/19 04:49:09;;;;;;;14.93;6.22;;;6.90;99.90;;;;;;5030595;28;20117;-58
2022/09/19 04:51:38;;;;;;;20.10;6.40;;;6.90;99.90;;;;;;5030272;28;20125;-57
2022/09/19 04:54:05;;;;;;;15.55;6.13;;;6.90;99.90;;;;;;5014156;28;20037;-58
2022/09/19 04:56:32;;;;;;;9.63;4.97;;;6.90;99.90;;;;;;5013943;28;20037;-58
2022/09/19 04:59:02;;;;;;;13.35;5.05;;;6.90;99.90;;;;;;4997561;28;20026;-58
2022/09/19 05:01:30;;;;;;;12.25;5.50;;;7.00;99.90;;;;;;5030363;28;20109;-58
2022/09/19 05:03:58;;;;;;;10.77;4.95;;;7.00;99.90;;;;;;5013705;28;20515;-58
2022/09/19 05:06:28;;;;;;;12.23;5.45;;;7.00;99.90;;;;;;5015005;28;20395;-58
2022/09/19 05:08:55;;;;;;;8.57;3.85;;;7.00;99.90;;;;;;5013779;28;20044;-58
2022/09/19 05:11:42;;;;;;;8.68;4.43;;;7.00;99.90;;;;;;5011743;28;20037;-58
2022/09/19 05:14:09;;;;;;;9.73;3.88;;;7.10;99.90;;;;;;5029733;28;20121;-57
2022/09/19 05:16:39;;;;;;;26.83;6.63;;;7.30;99.90;;;;;;5014133;28;20030;-57
2022/09/19 05:19:06;;;;;;;13.43;5.18;;;7.30;99.90;;;;;;5030344;28;20177;-58
2022/09/19 05:21:33;;;;;;;16.63;6.13;;;7.40;99.90;;;;;;5014578;28;20030;-58
2022/09/19 05:24:00;;;;;;;17.30;6.28;;;7.50;99.90;;;;;;5013404;28;20022;-58
2022/09/19 05:26:27;;;;;;;16.45;5.97;;;7.60;99.90;;;;;;5013330;28;20381;-58
2022/09/19 05:28:55;;;;;;;30.77;10.23;;;7.80;99.90;;;;;;5013078;28;20049;-58
2022/09/19 05:31:25;;;;;;;23.65;8.32;;;7.70;99.90;;;;;;5013388;28;20038;-58
2022/09/19 05:34:11;;;;;;;25.00;7.38;;;7.90;99.90;;;;;;5014353;28;20040;-58
2022/09/19 05:36:38;;;;;;;20.77;7.40;;;8.10;99.90;;;;;;5029513;28;20025;-58
2022/09/19 05:39:20;;;;;;;20.95;7.88;;;8.10;99.90;;;;;;5013179;28;20065;-58
2022/09/19 05:42:24;;;;;;;21.08;8.60;;;8.20;99.90;;;;;;4992301;28;20042;-57
2022/09/19 05:44:50;;;;;;;16.00;7.60;;;8.30;99.90;;;;;;4979629;28;20085;-58
2022/09/19 05:47:16;;;;;;;26.52;9.30;;;8.40;99.90;;;;;;4991919;28;20038;-58
2022/09/19 05:49:42;;;;;;;25.08;8.23;;;8.60;99.90;;;;;;4992057;28;20134;-58
2022/09/19 05:54:52;;;;;;;25.13;9.15;;;8.70;99.90;;;;;;4991923;28;20042;-58
2022/09/19 05:57:56;;;;;;;19.77;8.80;;;8.80;99.90;;;;;;4986881;28;20034;-58
2022/09/19 06:00:25;;;;;;;24.85;8.50;;;8.90;99.90;;;;;;4991962;28;20057;-58
2022/09/19 06:02:56;;;;;;;22.90;7.97;;;9.10;99.90;;;;;;4975990;28;20030;-58
2022/09/19 06:05:24;;;;;;;23.65;8.23;;;9.20;99.90;;;;;;4992402;28;20125;-58
2022/09/19 06:07:51;;;;;;;41.92;10.65;;;9.40;99.90;;;;;;4992173;28;20037;-58
2022/09/19 06:10:18;;;;;;;24.42;9.38;;;9.40;99.90;;;;;;4992181;28;20138;-58
2022/09/19 06:12:45;;;;;;;27.08;8.80;;;9.60;99.90;;;;;;4998874;28;20037;-58
2022/09/19 06:15:13;;;;;;;21.48;9.13;;;9.70;99.90;;;;;;5012826;28;20420;-58
2022/09/19 06:17:39;;;;;;;22.27;9.20;;;9.50;99.90;;;;;;5012890;28;20034;-58
2022/09/19 06:20:17;;;;;;;26.38;10.52;;;9.60;99.90;;;;;;5029212;28;20081;-58
2022/09/19 06:23:01;;;;;;;30.63;11.25;;;9.80;99.90;;;;;;5029390;28;20037;-58
2022/09/19 06:25:33;;;;;;;26.05;11.43;;;9.90;99.90;;;;;;5012487;28;20503;-58
2022/09/19 06:28:02;;;;;;;29.88;13.13;;;10.10;99.90;;;;;;5012453;28;20029;-58
2022/09/19 06:30:29;;;;;;;37.67;15.57;;;10.20;99.90;;;;;;5029016;28;20036;-58
2022/09/19 06:33:12;;;;;;;31.42;14.90;;;10.30;99.90;;;;;;5028942;28;20161;-58
2022/09/19 06:36:00;;;;;;;35.80;15.20;;;10.30;99.90;;;;;;5022650;28;20512;-58
2022/09/19 06:38:30;;;;;;;29.25;14.48;;;10.20;99.90;;;;;;5005342;28;20026;-58
2022/09/19 06:41:07;;;;;;;26.17;14.07;;;10.40;99.90;;;;;;5030159;28;20059;-58
2022/09/19 06:43:55;;;;;;;22.90;12.18;;;10.60;99.90;;;;;;5015678;28;20061;-58
2022/09/19 06:46:44;;;;;;;31.92;14.88;;;10.70;99.90;;;;;;5016798;28;20034;-58
2022/09/19 06:49:28;;;;;;;29.30;13.50;;;10.70;99.90;;;;;;5032331;28;20025;-58
2022/09/19 06:52:05;;;;;;;39.00;14.77;;;10.80;99.90;;;;;;5017126;28;20046;-58
2022/09/19 06:54:31;;;;;;;30.58;14.13;;;11.00;99.90;;;;;;5032418;28;20048;-58
2022/09/19 06:56:57;;;;;;;27.48;13.98;;;11.20;99.90;;;;;;5032407;28;20479;-58
2022/09/19 06:59:24;;;;;;;33.33;13.38;;;11.50;99.90;;;;;;5032737;28;20029;-58
2022/09/19 07:01:50;;;;;;;24.27;13.38;;;11.70;99.90;;;;;;5017919;28;20026;-58
2022/09/19 07:16:07;;;;;;;20.52;9.52;;;12.20;99.90;;;;;;5000629;28;20088;-58
2022/09/19 07:18:35;;;;;;;21.33;8.10;;;12.20;99.90;;;;;;5015724;28;20030;-58
2022/09/19 07:21:20;;;;;;;12.90;6.65;;;12.30;99.90;;;;;;5016224;28;20555;-58
2022/09/19 07:23:47;;;;;;;16.60;5.43;;;12.30;99.90;;;;;;5015419;28;20042;-58
2022/09/19 07:26:32;;;;;;;14.70;6.57;;;12.30;99.90;;;;;;5017009;28;20053;-58
2022/09/19 07:28:58;;;;;;;12.80;7.07;;;12.20;99.90;;;;;;5015122;28;20033;-58
2022/09/19 07:31:27;;;;;;;15.02;6.00;;;12.10;99.90;;;;;;5031550;28;20026;-58
2022/09/19 07:33:53;;;;;;;10.82;4.28;;;11.90;99.90;;;;;;5015187;28;20461;-58
2022/09/19 07:36:25;;;;;;;14.15;5.40;;;12.00;99.90;;;;;;5014844;28;20034;-58
2022/09/19 07:38:52;;;;;;;12.00;6.30;;;12.00;99.90;;;;;;5031764;28;20037;-58
2022/09/19 07:41:38;;;;;;;9.32;4.63;;;11.80;99.90;;;;;;5015936;28;20026;-58
2022/09/19 07:44:16;;;;;;;9.48;4.55;;;11.60;99.90;;;;;;5032014;28;20117;-58
2022/09/19 07:50:09;;;;;;;11.35;6.82;;;11.60;99.90;;;;;;5012937;28;20038;-58
2022/09/19 07:52:37;;;;;;;16.33;7.90;;;11.60;99.90;;;;;;5012473;28;20050;-58
2022/09/19 07:55:05;;;;;;;15.30;7.10;;;11.70;99.90;;;;;;5030261;28;20037;-58
2022/09/19 07:57:33;;;;;;;17.40;8.05;;;11.70;99.90;;;;;;5031013;28;20030;-58
2022/09/19 08:00:00;;;;;;;19.25;6.97;;;11.70;99.90;;;;;;5030281;28;20042;-58
2022/09/19 08:02:26;;;;;;;14.27;7.90;;;11.80;99.90;;;;;;5030550;28;20026;-58
2022/09/19 08:04:53;;;;;;;19.70;10.85;;;11.90;99.90;;;;;;5030874;28;20036;-58
2022/09/19 08:07:21;;;;;;;14.43;6.93;;;12.00;99.90;;;;;;5031063;28;20638;-58
2022/09/19 08:09:47;;;;;;;11.60;5.88;;;12.00;99.90;;;;;;5030960;28;20120;-58
2022/09/19 08:12:30;;;;;;;14.75;5.35;;;12.00;99.90;;;;;;5014305;28;20030;-58
2022/09/19 08:15:19;;;;;;;12.13;5.72;;;12.10;99.90;;;;;;5030876;28;20119;-58
2022/09/19 08:17:57;;;;;;;14.18;5.78;;;12.10;99.90;;;;;;5030875;28;20057;-58
2022/09/19 08:20:29;;;;;;;11.90;5.10;;;12.10;99.90;;;;;;5030925;28;20076;-58
2022/09/19 08:22:56;;;;;;;13.05;5.00;;;12.10;99.90;;;;;;5031501;28;20034;-57
2022/09/19 08:25:27;;;;;;;10.50;4.65;;;12.00;99.90;;;;;;5031468;28;20037;-58
2022/09/19 08:27:57;;;;;;;11.10;5.30;;;12.10;99.90;;;;;;5013002;28;20117;-58
2022/09/19 08:30:24;;;;;;;12.70;5.57;;;12.10;99.90;;;;;;5031009;28;20038;-58
2022/09/19 08:32:51;;;;;;;15.65;5.97;;;12.10;99.90;;;;;;5014561;28;20459;-58
2022/09/19 08:35:19;;;;;;;7.22;4.78;;;12.10;99.90;;;;;;5031033;28;20380;-58
2022/09/19 08:37:45;;;;;;;12.30;5.10;;;12.10;99.90;;;;;;5030960;28;20120;-58
2022/09/19 08:40:21;;;;;;;12.52;4.82;;;12.10;99.90;;;;;;5031097;28;20067;-58
2022/09/19 08:43:01;;;;;;;9.00;5.38;;;12.20;99.90;;;;;;5014363;28;20369;-58
2022/09/19 08:45:48;;;;;;;;;;;12.40;99.90;;;;;;5030503;28;20033;-58
2022/09/19 08:48:24;;;;;;;19.77;6.88;;;12.30;99.90;;;;;;5015138;28;19917;-58
2022/09/19 08:51:11;;;;;;;34.90;9.35;;;12.20;99.90;;;;;;5014049;28;20041;-58
2022/09/19 08:53:43;;;;;;;18.08;7.45;;;12.20;99.90;;;;;;5011918;28;20030;-58
2022/09/19 08:56:13;;;;;;;33.38;9.43;;;12.30;99.90;;;;;;5029978;28;20033;-58
2022/09/19 08:58:49;;;;;;;31.30;10.82;;;12.40;99.90;;;;;;5013628;28;20018;-58
2022/09/19 09:01:44;;;;;;;26.55;10.18;;;12.50;99.90;;;;;;5014427;28;20373;-58
2022/09/19 09:04:31;;;;;;;21.17;9.82;;;12.60;99.90;;;;;;5014418;28;20376;-58
2022/09/19 09:07:19;;;;;;;27.77;10.43;;;12.60;99.90;;;;;;5013670;28;20040;-58
2022/09/19 09:09:54;;;;;;;24.63;10.43;;;12.60;99.90;;;;;;5029812;28;20030;-58
2022/09/19 09:12:50;;;;;;;19.13;10.45;;;12.40;99.90;;;;;;5014660;28;20483;-58
2022/09/19 09:16:05;;;;;;;20.83;12.32;;;12.30;99.90;;;;;;4994684;28;20484;-58
2022/09/19 09:19:08;;;;;;;22.40;12.85;;;12.40;99.90;;;;;;4989549;28;20128;-58
2022/09/19 09:22:16;;;;;;;19.55;11.70;;;12.40;99.90;;;;;;5023832;28;20061;-58
2022/09/19 09:24:58;;;;;;;22.95;12.45;;;12.40;99.90;;;;;;5009563;28;20369;-58
2022/09/19 09:27:50;;;;;;;22.58;14.05;;;12.30;99.90;;;;;;5013253;28;20101;-57
2022/09/19 09:30:24;;;;;;;24.88;13.65;;;12.10;99.90;;;;;;5013148;28;20029;-58
2022/09/19 09:33:10;;;;;;;19.55;13.30;;;12.10;99.90;;;;;;5012879;28;20533;-57
2022/09/19 09:35:48;;;;;;;27.13;14.00;;;12.10;99.90;;;;;;5013117;28;20373;-57
2022/09/19 09:38:27;;;;;;;26.17;14.35;;;12.10;99.90;;;;;;5013165;28;20025;-57
2022/09/19 09:41:49;;;;;;;30.83;14.88;;;12.00;99.90;;;;;;5012996;28;20057;-57
2022/09/19 09:44:30;;;;;;;22.67;12.23;;;12.10;99.90;;;;;;5014689;28;20034;-57
2022/09/19 09:47:15;;;;;;;30.08;14.45;;;12.10;99.90;;;;;;5013144;28;20053;-57
2022/09/19 09:49:42;;;;;;;35.33;15.65;;;12.10;99.90;;;;;;5029083;28;20040;-57
2022/09/19 09:52:31;;;;;;;28.83;16.20;;;12.20;99.90;;;;;;5029255;28;20050;-57
2022/09/19 09:58:07;;;;;;;28.10;14.95;;;12.30;99.90;;;;;;5029095;28;20038;-57
2022/09/19 10:03:42;;;;;;;34.72;15.55;;;12.40;99.90;;;;;;5024805;28;20034;-57
2022/09/19 10:06:38;;;;;;;33.00;16.20;;;12.50;99.90;;;;;;4995627;28;20054;-57
2022/09/19 10:09:14;;;;;;;42.50;18.98;;;12.50;99.90;;;;;;5010356;28;20053;-57
2022/09/19 10:11:52;;;;;;;45.75;18.98;;;12.50;99.90;;;;;;4993125;28;20065;-58
2022/09/19 10:14:31;;;;;;;47.53;18.88;;;12.50;99.90;;;;;;4993756;28;20085;-58
2022/09/19 10:17:19;;;;;;;42.70;19.45;;;12.60;99.90;;;;;;4995852;28;20383;-58
2022/09/19 10:19:52;;;;;;;47.28;19.70;;;12.60;99.90;;;;;;5013294;28;20054;-58
2022/09/19 10:22:19;;;;;;;53.03;22.75;;;12.60;99.90;;;;;;5013362;28;20030;-58
2022/09/19 10:24:55;;;;;;;51.00;22.35;;;12.70;99.90;;;;;;5013068;28;20027;-57
2022/09/19 10:27:32;;;;;;;49.60;23.27;;;12.60;99.90;;;;;;5013162;28;20032;-58
2022/09/19 10:30:19;;;;;;;53.88;25.35;;;12.50;99.90;;;;;;4996806;28;20033;-58
2022/09/19 10:32:48;;;;;;;54.70;25.33;;;12.50;99.90;;;;;;5012929;28;20122;-58
2022/09/19 10:35:37;;;;;;;59.08;26.40;;;12.30;99.90;;;;;;4998006;28;20066;-58
2022/09/19 10:38:13;;;;;;;53.42;27.35;;;12.20;99.90;;;;;;5006083;28;20116;-58
2022/09/19 10:41:00;;;;;;;111.80;47.03;;;12.10;99.90;;;;;;5032538;28;20025;-58
2022/09/19 10:43:49;;;;;;;47.38;23.95;;;12.10;99.90;;;;;;5017618;28;20076;-58
2022/09/19 10:46:37;;;;;;;46.05;21.80;;;12.20;99.90;;;;;;5032572;28;20041;-58
2022/09/19 10:49:36;;;;;;;41.88;21.42;;;12.20;99.90;;;;;;5015839;28;20531;-58
2022/09/19 10:52:06;;;;;;;45.03;22.67;;;12.20;99.90;;;;;;5032150;28;20057;-58
2022/09/19 10:54:42;;;;;;;42.85;22.27;;;12.30;99.90;;;;;;5031760;28;20483;-57
2022/09/19 10:57:28;;;;;;;44.97;23.73;;;12.30;99.90;;;;;;5032156;28;20033;-57
2022/09/19 10:59:59;;;;;;;37.08;21.05;;;12.30;99.90;;;;;;5016019;28;20033;-57
2022/09/19 11:02:30;;;;;;;52.13;33.83;;;12.20;99.90;;;;;;5032335;28;20029;-58
2022/09/19 11:05:03;;;;;;;47.03;30.10;;;12.00;99.90;;;;;;5032245;28;20044;-57
2022/09/19 11:08:00;;;;;;;38.55;19.95;;;12.00;99.90;;;;;;5017102;28;20026;-57
2022/09/19 11:10:42;;;;;;;42.42;21.55;;;12.00;99.90;;;;;;5031964;28;20484;-57
2022/09/19 11:13:20;;;;;;;41.78;19.05;;;12.00;99.90;;;;;;5032232;28;20041;-60
2022/09/19 11:16:02;;;;;;;45.55;17.63;;;12.20;99.90;;;;;;5016132;28;20033;-58
2022/09/19 11:18:56;;;;;;;53.25;19.88;;;12.10;99.90;;;;;;5016093;28;20094;-58
2022/09/19 11:21:47;;;;;;;49.50;18.52;;;12.10;99.90;;;;;;5015421;28;20053;-58
2022/09/19 11:24:25;;;;;;;34.28;14.73;;;12.00;99.90;;;;;;5016606;28;20078;-57
2022/09/19 11:27:07;;;;;;;28.77;11.77;;;12.10;99.90;;;;;;5016278;28;20383;-58
2022/09/19 11:30:02;;;;;;;22.35;12.52;;;12.00;99.90;;;;;;5015052;28;20033;-58
2022/09/19 11:32:59;;;;;;;24.92;12.45;;;12.10;99.90;;;;;;5015175;28;20034;-58
2022/09/19 11:36:16;;;;;;;23.80;12.63;;;12.10;99.90;;;;;;5008000;28;20065;-58
2022/09/19 11:39:03;;;;;;;21.52;10.85;;;12.20;99.90;;;;;;5031509;28;20120;-58
2022/09/19 11:41:52;;;;;;;21.08;10.77;;;12.40;99.90;;;;;;5031175;28;20174;-58
2022/09/19 11:44:54;;;;;;;18.63;10.25;;;12.40;99.90;;;;;;5031580;28;20338;-57
2022/09/19 11:47:50;;;;;;;17.63;9.17;;;12.40;99.90;;;;;;5031086;28;20546;-58
2022/09/19 11:50:41;;;;;;;16.20;7.57;;;12.40;99.90;;;;;;5014993;28;20067;-58
2022/09/19 11:53:11;;;;;;;13.80;7.30;;;12.40;99.90;;;;;;5014759;28;20041;-58
2022/09/19 11:56:15;;;;;;;18.85;7.85;;;12.50;99.90;;;;;;5030775;28;20463;-58
2022/09/19 11:59:06;;;;;;;26.08;13.73;;;12.60;99.90;;;;;;5030895;28;20032;-58
2022/09/19 12:02:04;;;;;;;20.33;9.93;;;12.60;99.90;;;;;;5013973;28;20569;-58
2022/09/19 12:04:42;;;;;;;16.83;10.57;;;12.70;99.90;;;;;;4995518;28;20415;-58
2022/09/19 12:07:53;;;;;;;12.98;8.48;;;12.70;99.90;;;;;;5014934;28;20042;-58
2022/09/19 12:10:32;;;;;;;15.85;11.07;;;12.60;99.90;;;;;;4982060;28;20041;-58
2022/09/19 12:13:10;;;;;;;16.35;10.23;;;12.50;99.90;;;;;;5014573;28;20165;-57
2022/09/19 12:15:48;;;;;;;16.75;8.82;;;12.60;99.90;;;;;;5014122;28;20060;-58
2022/09/19 12:18:22;;;;;;;19.40;10.60;;;12.70;99.90;;;;;;5014568;28;20034;-58
2022/09/19 12:20:54;;;;;;;17.83;11.20;;;12.70;99.90;;;;;;5014085;28;20026;-58
2022/09/19 12:26:23;;;;;;;25.05;10.88;;;12.90;99.90;;;;;;5030880;28;20367;-58
2022/09/19 12:28:56;;;;;;;21.60;10.18;;;12.90;99.90;;;;;;5014307;28;20036;-58
2022/09/19 12:31:36;;;;;;;23.48;10.18;;;13.00;99.90;;;;;;5015433;28;20046;-58
2022/09/19 12:34:28;;;;;;;22.30;9.98;;;12.90;99.90;;;;;;5014026;28;20030;-58
2022/09/19 12:37:01;;;;;;;19.70;10.00;;;12.90;99.90;;;;;;5010826;28;20594;-58
2022/09/19 12:39:44;;;;;;;23.23;11.48;;;12.90;99.90;;;;;;4993601;28;20058;-57
2022/09/19 12:42:20;;;;;;;18.13;8.13;;;13.00;99.90;;;;;;5010870;28;20030;-58
2022/09/19 12:45:01;;;;;;;19.35;9.05;;;12.90;99.90;;;;;;4995672;28;20030;-58
2022/09/19 12:47:39;;;;;;;33.55;14.43;;;12.80;99.90;;;;;;5010851;28;20496;-57
2022/09/19 12:50:36;;;;;;;26.08;9.23;;;12.90;99.90;;;;;;5010442;28;20038;-57
2022/09/19 12:53:21;;;;;;;16.60;6.50;;;12.80;99.90;;;;;;4995096;28;20055;-58
2022/09/19 12:56:01;;;;;;;9.60;4.93;;;12.80;99.90;;;;;;4995525;28;20080;-58
2022/09/19 12:59:05;;;;;;;8.88;5.10;;;12.80;99.90;;;;;;4995481;28;20028;-58
2022/09/19 13:01:37;;;;;;;9.30;4.28;;;12.80;99.90;;;;;;4989133;28;20536;-58
2022/09/19 13:04:25;;;;;;;8.60;3.95;;;12.70;99.90;;;;;;4995455;28;20026;-58
2022/09/19 13:07:30;;;;;;;10.05;5.05;;;12.70;99.90;;;;;;4995444;28;20512;-58
2022/09/19 13:10:01;;;;;;;11.07;4.38;;;12.70;99.90;;;;;;4981056;28;20074;-58
2022/09/19 13:12:34;;;;;;;9.38;5.18;;;12.70;99.90;;;;;;4995205;28;20026;-58
2022/09/19 13:15:12;;;;;;;11.32;5.82;;;12.70;99.90;;;;;;4995006;28;20034;-58
2022/09/19 13:23:32;;;;;;;7.88;4.38;;;12.60;99.90;;;;;;5014546;28;20026;-58
2022/09/19 13:26:17;;;;;;;8.77;4.40;;;12.60;99.90;;;;;;5014806;28;20029;-59
2022/09/19 13:28:51;;;;;;;13.68;7.50;;;12.60;99.90;;;;;;5014969;28;20030;-59
2022/09/19 13:31:19;;;;;;;11.63;5.50;;;12.60;99.90;;;;;;5014716;28;20042;-58
2022/09/19 13:33:50;;;;;;;11.13;4.88;;;12.70;99.90;;;;;;5014484;28;20044;-58
2022/09/19 13:36:37;;;;;;;10.35;5.38;;;12.70;99.90;;;;;;5013562;28;20427;-59
2022/09/19 13:39:07;;;;;;;12.02;6.63;;;12.80;99.90;;;;;;5014725;28;20080;-59
2022/09/19 13:41:55;;;;;;;10.48;5.85;;;12.80;99.90;;;;;;5014733;28;20061;-58
2022/09/19 13:44:28;;;;;;;14.85;7.18;;;12.60;99.90;;;;;;5014652;28;20030;-59
2022/09/19 13:47:05;;;;;;;13.55;6.28;;;12.80;99.90;;;;;;5014410;28;20626;-58
2022/09/19 13:49:47;;;;;;;12.20;9.68;;;12.80;99.90;;;;;;5014634;28;20076;-58
2022/09/19 13:52:31;;;;;;;11.75;5.45;;;12.90;99.90;;;;;;5018536;28;20409;-58
2022/09/19 13:55:06;;;;;;;10.45;4.80;;;12.70;99.90;;;;;;5018713;28;20112;-58
2022/09/19 13:57:33;;;;;;;6.18;3.92;;;12.80;99.90;;;;;;5018611;28;20030;-58
2022/09/19 14:00:17;;;;;;;9.63;4.53;;;12.70;99.90;;;;;;5018531;28;20030;-58
2022/09/19 14:03:03;;;;;;;8.10;3.72;;;12.80;99.90;;;;;;5018373;28;20056;-58
2022/09/19 14:05:39;;;;;;;8.13;4.88;;;12.80;99.90;;;;;;5033667;28;20092;-59
2022/09/19 14:08:30;;;;;;;17.27;8.68;;;12.90;99.90;;;;;;5018455;28;20109;-59